Aberdeen, SD - Weather Station Data
Daily Summary for May 15, 2019 Units:  Both    English   Metric
Daily Weekly Monthly Yearly Custom
  High: Low: Average:
Temperature: 82 °F /  27.8 °C 52 °F /  11.1 °C 70 °F /  21.1 °C
Dew Point: 61 °F /  16.1 °C 42 °F /  5.6 °C 51.3 °F /  10.7 °C
Humidity: 76% 35% 53%
Wind Speed: 23mph /  37km/h - 5.3mph /  8.5km/h
Wind Gust: 25mph /  40.2km/h - -
Wind- - SSE
Pressure: 29.92 in /  1013.1 hPa 29.53 in /  999.9 hPa -
Precipitation: 0.00 in /  0 mm    
Historical Graphs
 
 
Tabular Data for May 15, 2019
Time Temperature Dew Point Pressure Wind Wind Speed Wind Gust Humidity Rainfall Rate (Hourly) solar
01:00 62 °F /  16.7 °C 48 °F /  8.9 °C 29.89in /  1012.1hPa NE 4mph /  6.4km/h 7mph /  11.3km/h 61% 0.00in /  0mm 0 W/m2
01:15 61 °F /  16.1 °C 49 °F /  9.4 °C 29.89in /  1012.1hPa Calm   6mph /  9.7km/h 64% 0.00in /  0mm 0 W/m2
01:30 61 °F /  16.1 °C 48 °F /  8.9 °C 29.89in /  1012.1hPa NE 6mph /  9.7km/h 11mph /  17.7km/h 64% 0.00in /  0mm 0 W/m2
01:45 61 °F /  16.1 °C 48 °F /  8.9 °C 29.90in /  1012.4hPa NE 3mph /  4.8km/h 10mph /  16.1km/h 64% 0.00in /  0mm 0 W/m2
02:00 60 °F /  15.6 °C 48 °F /  8.9 °C 29.91in /  1012.8hPa NE 6mph /  9.7km/h 6mph /  9.7km/h 64% 0.00in /  0mm 0 W/m2
02:15 60 °F /  15.6 °C 48 °F /  8.9 °C 29.91in /  1012.8hPa NE 4mph /  6.4km/h 7mph /  11.3km/h 64% 0.00in /  0mm 0 W/m2
02:30 60 °F /  15.6 °C 47 °F /  8.3 °C 29.91in /  1012.8hPa NE 4mph /  6.4km/h 10mph /  16.1km/h 63% 0.00in /  0mm 0 W/m2
02:45 59 °F /  15 °C 47 °F /  8.3 °C 29.91in /  1012.8hPa NE 6mph /  9.7km/h 9mph /  14.5km/h 63% 0.00in /  0mm 0 W/m2
03:00 59 °F /  15 °C 46 °F /  7.8 °C 29.91in /  1012.8hPa NE 2mph /  3.2km/h 7mph /  11.3km/h 64% 0.00in /  0mm 0 W/m2
03:15 58 °F /  14.4 °C 46 °F /  7.8 °C 29.91in /  1012.8hPa NE 4mph /  6.4km/h 7mph /  11.3km/h 64% 0.00in /  0mm 0 W/m2
03:30 58 °F /  14.4 °C 45 °F /  7.2 °C 29.91in /  1012.8hPa NE 3mph /  4.8km/h 7mph /  11.3km/h 63% 0.00in /  0mm 0 W/m2
03:45 58 °F /  14.4 °C 44 °F /  6.7 °C 29.91in /  1012.8hPa Calm   7mph /  11.3km/h 61% 0.00in /  0mm 0 W/m2
04:00 57 °F /  13.9 °C 43 °F /  6.1 °C 29.91in /  1012.8hPa ENE 3mph /  4.8km/h 5mph /  8km/h 60% 0.00in /  0mm 0 W/m2
04:15 57 °F /  13.9 °C 42 °F /  5.6 °C 29.92in /  1013.1hPa Calm   6mph /  9.7km/h 58% 0.00in /  0mm 0 W/m2
04:30 56 °F /  13.3 °C 42 °F /  5.6 °C 29.91in /  1012.8hPa ENE 2mph /  3.2km/h 4mph /  6.4km/h 59% 0.00in /  0mm 0 W/m2
04:45 56 °F /  13.3 °C 42 °F /  5.6 °C 29.91in /  1012.8hPa Calm   4mph /  6.4km/h 60% 0.00in /  0mm 0 W/m2
05:00 56 °F /  13.3 °C 42 °F /  5.6 °C 29.91in /  1012.8hPa Calm   2mph /  3.2km/h 61% 0.00in /  0mm 0 W/m2
05:15 55 °F /  12.8 °C 42 °F /  5.6 °C 29.91in /  1012.8hPa Calm   1mph /  1.6km/h 62% 0.00in /  0mm 0 W/m2
05:30 54 °F /  12.2 °C 42 °F /  5.6 °C 29.91in /  1012.8hPa Calm   2mph /  3.2km/h 63% 0.00in /  0mm 0 W/m2
05:45 54 °F /  12.2 °C 42 °F /  5.6 °C 29.91in /  1012.8hPa Calm   2mph /  3.2km/h 63% 0.00in /  0mm 0 W/m2
06:00 54 °F /  12.2 °C 42 °F /  5.6 °C 29.91in /  1012.8hPa Calm   3mph /  4.8km/h 64% 0.00in /  0mm 0 W/m2
06:15 54 °F /  12.2 °C 42 °F /  5.6 °C 29.91in /  1012.8hPa Calm   4mph /  6.4km/h 65% 0.00in /  0mm 0 W/m2
06:30 54 °F /  12.2 °C 43 °F /  6.1 °C 29.90in /  1012.4hPa ENE 1mph /  1.6km/h 4mph /  6.4km/h 66% 0.00in /  0mm 0 W/m2
06:45 54 °F /  12.2 °C 43 °F /  6.1 °C 29.90in /  1012.4hPa Calm   4mph /  6.4km/h 67% 0.00in /  0mm 0 W/m2
07:00 53 °F /  11.7 °C 43 °F /  6.1 °C 29.91in /  1012.8hPa Calm   1mph /  1.6km/h 68% 0.00in /  0mm 0 W/m2
07:15 52 °F /  11.1 °C 42 °F /  5.6 °C 29.91in /  1012.8hPa Calm     69% 0.00in /  0mm 9 W/m2
07:30 52 °F /  11.1 °C 43 °F /  6.1 °C 29.91in /  1012.8hPa Calm   1mph /  1.6km/h 72% 0.00in /  0mm 16 W/m2
07:45 52 °F /  11.1 °C 43 °F /  6.1 °C 29.91in /  1012.8hPa Calm     73% 0.00in /  0mm 28 W/m2
08:00 52 °F /  11.1 °C 44 °F /  6.7 °C 29.90in /  1012.4hPa Calm   1mph /  1.6km/h 74% 0.00in /  0mm 39 W/m2
08:15 53 °F /  11.7 °C 46 °F /  7.8 °C 29.90in /  1012.4hPa ENE 3mph /  4.8km/h 4mph /  6.4km/h 76% 0.00in /  0mm 109 W/m2
08:30 56 °F /  13.3 °C 47 °F /  8.3 °C 29.90in /  1012.4hPa ENE 3mph /  4.8km/h 4mph /  6.4km/h 73% 0.00in /  0mm 160 W/m2
08:45 58 °F /  14.4 °C 49 °F /  9.4 °C 29.89in /  1012.1hPa Calm   5mph /  8km/h 72% 0.00in /  0mm 209 W/m2
09:00 60 °F /  15.6 °C 50 °F /  10 °C 29.88in /  1011.7hPa ESE 1mph /  1.6km/h 6mph /  9.7km/h 70% 0.00in /  0mm 255 W/m2
09:15 62 °F /  16.7 °C 50 °F /  10 °C 29.88in /  1011.7hPa SE 5mph /  8km/h 8mph /  12.9km/h 66% 0.00in /  0mm 302 W/m2
09:30 64 °F /  17.8 °C 48 °F /  8.9 °C 29.88in /  1011.7hPa SE 7mph /  11.3km/h 11mph /  17.7km/h 57% 0.00in /  0mm 346 W/m2
09:45 65 °F /  18.3 °C 47 °F /  8.3 °C 29.88in /  1011.7hPa SE 5mph /  8km/h 13mph /  20.9km/h 53% 0.00in /  0mm 394 W/m2
10:00 67 °F /  19.4 °C 47 °F /  8.3 °C 29.88in /  1011.7hPa SE 5mph /  8km/h 15mph /  24.1km/h 50% 0.00in /  0mm 439 W/m2
10:15 68 °F /  20 °C 46 °F /  7.8 °C 29.87in /  1011.4hPa SE 7mph /  11.3km/h 12mph /  19.3km/h 45% 0.00in /  0mm 483 W/m2
10:30 69 °F /  20.6 °C 46 °F /  7.8 °C 29.88in /  1011.7hPa SSE 5mph /  8km/h 14mph /  22.5km/h 44% 0.00in /  0mm 522 W/m2
10:45 70 °F /  21.1 °C 45 °F /  7.2 °C 29.87in /  1011.4hPa ESE 4mph /  6.4km/h 13mph /  20.9km/h 41% 0.00in /  0mm 559 W/m2
11:00 71 °F /  21.7 °C 48 °F /  8.9 °C 29.87in /  1011.4hPa ESE 3mph /  4.8km/h 14mph /  22.5km/h 44% 0.00in /  0mm 599 W/m2
11:15 72 °F /  22.2 °C 46 °F /  7.8 °C 29.86in /  1011.1hPa ESE 8mph /  12.9km/h 14mph /  22.5km/h 40% 0.00in /  0mm 613 W/m2
11:30 73 °F /  22.8 °C 45 °F /  7.2 °C 29.86in /  1011.1hPa SE 7mph /  11.3km/h 15mph /  24.1km/h 37% 0.00in /  0mm 654 W/m2
11:45 73 °F /  22.8 °C 45 °F /  7.2 °C 29.85in /  1010.7hPa SE 4mph /  6.4km/h 15mph /  24.1km/h 37% 0.00in /  0mm 705 W/m2
12:00 75 °F /  23.9 °C 45 °F /  7.2 °C 29.85in /  1010.7hPa SSE 6mph /  9.7km/h 15mph /  24.1km/h 35% 0.00in /  0mm 733 W/m2
12:15 75 °F /  23.9 °C 46 °F /  7.8 °C 29.84in /  1010.4hPa SSE 5mph /  8km/h 12mph /  19.3km/h 35% 0.00in /  0mm 738 W/m2
12:30 76 °F /  24.4 °C 46 °F /  7.8 °C 29.83in /  1010hPa SE 11mph /  17.7km/h 14mph /  22.5km/h 35% 0.00in /  0mm 780 W/m2
12:45 77 °F /  25 °C 48 °F /  8.9 °C 29.82in /  1009.7hPa SSE 8mph /  12.9km/h 14mph /  22.5km/h 37% 0.00in /  0mm 742 W/m2
13:00 77 °F /  25 °C 50 °F /  10 °C 29.82in /  1009.7hPa SE 4mph /  6.4km/h 14mph /  22.5km/h 38% 0.00in /  0mm 830 W/m2
13:15 77 °F /  25 °C 50 °F /  10 °C 29.81in /  1009.4hPa SE 3mph /  4.8km/h 16mph /  25.7km/h 39% 0.00in /  0mm 844 W/m2
13:30 78 °F /  25.6 °C 51 °F /  10.6 °C 29.81in /  1009.4hPa SSE 9mph /  14.5km/h 17mph /  27.4km/h 39% 0.00in /  0mm 837 W/m2
13:45 79 °F /  26.1 °C 51 °F /  10.6 °C 29.80in /  1009hPa ESE 10mph /  16.1km/h 15mph /  24.1km/h 38% 0.00in /  0mm 874 W/m2
14:00 79 °F /  26.1 °C 53 °F /  11.7 °C 29.79in /  1008.7hPa SSE 5mph /  8km/h 17mph /  27.4km/h 40% 0.00in /  0mm 860 W/m2
14:15 79 °F /  26.1 °C 53 °F /  11.7 °C 29.79in /  1008.7hPa SSE 9mph /  14.5km/h 17mph /  27.4km/h 40% 0.00in /  0mm 872 W/m2
14:30 80 °F /  26.7 °C 52 °F /  11.1 °C 29.77in /  1008hPa South 9mph /  14.5km/h 15mph /  24.1km/h 39% 0.00in /  0mm 881 W/m2
14:45 80 °F /  26.7 °C 54 °F /  12.2 °C 29.76in /  1007.7hPa South 5mph /  8km/h 16mph /  25.7km/h 40% 0.00in /  0mm 872 W/m2
15:00 81 °F /  27.2 °C 55 °F /  12.8 °C 29.75in /  1007.3hPa SSE 9mph /  14.5km/h 14mph /  22.5km/h 41% 0.00in /  0mm 833 W/m2
15:15 81 °F /  27.2 °C 55 °F /  12.8 °C 29.74in /  1007hPa South 23mph /  37km/h 23mph /  37km/h 41% 0.00in /  0mm 847 W/m2
15:30 81 °F /  27.2 °C 56 °F /  13.3 °C 29.73in /  1006.7hPa SSW 7mph /  11.3km/h 21mph /  33.8km/h 42% 0.00in /  0mm 856 W/m2
15:45 82 °F /  27.8 °C 54 °F /  12.2 °C 29.72in /  1006.3hPa SSW 9mph /  14.5km/h 16mph /  25.7km/h 39% 0.00in /  0mm 831 W/m2
16:00 82 °F /  27.8 °C 55 °F /  12.8 °C 29.71in /  1006hPa SSW 14mph /  22.5km/h 25mph /  40.2km/h 40% 0.00in /  0mm 807 W/m2
16:15 82 °F /  27.8 °C 56 °F /  13.3 °C 29.71in /  1006hPa SSE 6mph /  9.7km/h 20mph /  32.2km/h 41% 0.00in /  0mm 733 W/m2
16:30 82 °F /  27.8 °C 57 °F /  13.9 °C 29.69in /  1005.3hPa South 12mph /  19.3km/h 18mph /  29km/h 43% 0.00in /  0mm 745 W/m2
16:45 81 °F /  27.2 °C 56 °F /  13.3 °C 29.69in /  1005.3hPa SSW 10mph /  16.1km/h 24mph /  38.6km/h 42% 0.00in /  0mm 619 W/m2
17:00 81 °F /  27.2 °C 56 °F /  13.3 °C 29.69in /  1005.3hPa SW 5mph /  8km/h 20mph /  32.2km/h 43% 0.00in /  0mm 408 W/m2
17:15 81 °F /  27.2 °C 57 °F /  13.9 °C 29.68in /  1005hPa SSE 7mph /  11.3km/h 20mph /  32.2km/h 44% 0.00in /  0mm 599 W/m2
17:30 82 °F /  27.8 °C 57 °F /  13.9 °C 29.67in /  1004.6hPa SSE 5mph /  8km/h 21mph /  33.8km/h 43% 0.00in /  0mm 218 W/m2
17:45 82 °F /  27.8 °C 59 °F /  15 °C 29.66in /  1004.3hPa SSE 6mph /  9.7km/h 21mph /  33.8km/h 45% 0.00in /  0mm 615 W/m2
18:00 82 °F /  27.8 °C 58 °F /  14.4 °C 29.65in /  1003.9hPa SW 7mph /  11.3km/h 25mph /  40.2km/h 44% 0.00in /  0mm 582 W/m2
18:15 82 °F /  27.8 °C 59 °F /  15 °C 29.64in /  1003.6hPa South 10mph /  16.1km/h 21mph /  33.8km/h 46% 0.00in /  0mm 529 W/m2
18:30 82 °F /  27.8 °C 59 °F /  15 °C 29.63in /  1003.3hPa SSW 13mph /  20.9km/h 17mph /  27.4km/h 46% 0.00in /  0mm 496 W/m2
18:45 82 °F /  27.8 °C 60 °F /  15.6 °C 29.62in /  1002.9hPa South 15mph /  24.1km/h 25mph /  40.2km/h 47% 0.00in /  0mm 401 W/m2
19:00 82 °F /  27.8 °C 60 °F /  15.6 °C 29.62in /  1002.9hPa SSE 11mph /  17.7km/h 22mph /  35.4km/h 47% 0.00in /  0mm 388 W/m2
19:15 81 °F /  27.2 °C 59 °F /  15 °C 29.61in /  1002.6hPa SSW 7mph /  11.3km/h 21mph /  33.8km/h 47% 0.00in /  0mm 174 W/m2
19:30 81 °F /  27.2 °C 59 °F /  15 °C 29.61in /  1002.6hPa SSE 13mph /  20.9km/h 20mph /  32.2km/h 48% 0.00in /  0mm 318 W/m2
19:45 82 °F /  27.8 °C 59 °F /  15 °C 29.61in /  1002.6hPa SSE 16mph /  25.7km/h 21mph /  33.8km/h 47% 0.00in /  0mm 311 W/m2
20:00 82 °F /  27.8 °C 58 °F /  14.4 °C 29.60in /  1002.3hPa SW 11mph /  17.7km/h 20mph /  32.2km/h 45% 0.00in /  0mm 105 W/m2
20:15 81 °F /  27.2 °C 58 °F /  14.4 °C 29.59in /  1001.9hPa SW 14mph /  22.5km/h 19mph /  30.6km/h 46% 0.00in /  0mm 98 W/m2
20:30 81 °F /  27.2 °C 59 °F /  15 °C 29.58in /  1001.6hPa South 4mph /  6.4km/h 16mph /  25.7km/h 47% 0.00in /  0mm 102 W/m2
20:45 81 °F /  27.2 °C 60 °F /  15.6 °C 29.58in /  1001.6hPa SSW 5mph /  8km/h 14mph /  22.5km/h 49% 0.00in /  0mm 98 W/m2
21:00 81 °F /  27.2 °C 60 °F /  15.6 °C 29.57in /  1001.2hPa SSE 5mph /  8km/h 12mph /  19.3km/h 50% 0.00in /  0mm 76 W/m2
21:15 80 °F /  26.7 °C 60 °F /  15.6 °C 29.57in /  1001.2hPa SSE 8mph /  12.9km/h 11mph /  17.7km/h 51% 0.00in /  0mm 54 W/m2
21:30 79 °F /  26.1 °C 61 °F /  16.1 °C 29.57in /  1001.2hPa South 3mph /  4.8km/h 8mph /  12.9km/h 53% 0.00in /  0mm 28 W/m2
21:45 78 °F /  25.6 °C 60 °F /  15.6 °C 29.55in /  1000.6hPa SE 2mph /  3.2km/h 9mph /  14.5km/h 55% 0.00in /  0mm 5 W/m2
22:00 77 °F /  25 °C 60 °F /  15.6 °C 29.55in /  1000.6hPa South 1mph /  1.6km/h 9mph /  14.5km/h 56% 0.00in /  0mm 0 W/m2
22:15 76 °F /  24.4 °C 59 °F /  15 °C 29.55in /  1000.6hPa South 5mph /  8km/h 8mph /  12.9km/h 57% 0.00in /  0mm 0 W/m2
22:30 75 °F /  23.9 °C 59 °F /  15 °C 29.54in /  1000.2hPa Calm   6mph /  9.7km/h 58% 0.00in /  0mm 0 W/m2
22:45 74 °F /  23.3 °C 59 °F /  15 °C 29.53in /  999.9hPa SSW 3mph /  4.8km/h 8mph /  12.9km/h 60% 0.00in /  0mm 0 W/m2
23:00 73 °F /  22.8 °C 59 °F /  15 °C 29.54in /  1000.2hPa SSW 7mph /  11.3km/h 13mph /  20.9km/h 61% 0.00in /  0mm 0 W/m2
23:15 74 °F /  23.3 °C 59 °F /  15 °C 29.55in /  1000.6hPa SW 5mph /  8km/h 12mph /  19.3km/h 60% 0.00in /  0mm 0 W/m2
23:30 74 °F /  23.3 °C 60 °F /  15.6 °C 29.55in /  1000.6hPa SSW 6mph /  9.7km/h 16mph /  25.7km/h 61% 0.00in /  0mm 0 W/m2
23:45 74 °F /  23.3 °C 60 °F /  15.6 °C 29.56in /  1000.9hPa SSW 8mph /  12.9km/h 12mph /  19.3km/h 61% 0.00in /  0mm 0 W/m2
00:00 74 °F /  23.3 °C 60 °F /  15.6 °C 29.57in /  1001.2hPa SSW 9mph /  14.5km/h 15mph /  24.1km/h 61% 0.00in /  0mm 0 W/m2
00:15 74 °F /  23.3 °C 60 °F /  15.6 °C 29.59in /  1001.9hPa SW 6mph /  9.7km/h 16mph /  25.7km/h 63% 0.00in /  0mm 0 W/m2
00:30 73 °F /  22.8 °C 60 °F /  15.6 °C 29.59in /  1001.9hPa West 2mph /  3.2km/h 16mph /  25.7km/h 64% 0.00in /  0mm 0 W/m2
00:45 73 °F /  22.8 °C 59 °F /  15 °C 29.59in /  1001.9hPa SE 1mph /  1.6km/h 8mph /  12.9km/h 62% 0.00in /  0mm 0 W/m2
Compliments of Weather Underground - 2 mb